Terminal Aerodrome Forecast
Issued by NWS

Home | Current Version | Previous Version | Text Only | Print | Product List | Glossary On
Versions: 1 2 3 4 5 6 7 8 9 10 11 12 13 14 15 16 17 18 19 20 21 22
000
FTUS43 KDVN 291207
TAFCID

KCID 291220Z 2912/3012 22012G18KT P6SM SCT015 BKN250
     FM291600 23014KT P6SM SCT040 BKN250 PROB30 2921/3001 3SM TSRA
      BR BKN035CB
     FM300300 19006KT 6SM BR SCT015 OVC040=

USA.gov is the U.S. government's official web portal to all federal, state and local government web resources and services.